Time;durP1;ratioP1;P1;durP2;ratioP2;P2;SDS_P1;SDS_P2;PMS_P1;PMS_P2;Temp;Humidity;BMP_temperature;BMP_pressure;BME280_temperature;BME280_humidity;BME280_pressure;Samples;Min_cycle;Max_cycle;Signal;HPM_P1;HPM_P2
2022/02/09 00:05:21;;;;;;;;;;;0.30;99.90;;;;;;5092190;28;19926;-52
2022/02/09 00:07:58;;;;;;;;;;;0.40;99.90;;;;;;5092377;28;19972;-51
2022/02/09 00:10:26;;;;;;;;;;;0.30;99.90;;;;;;5092190;28;19924;-54
2022/02/09 00:13:06;;;;;;;;;;;0.20;99.90;;;;;;5092573;28;19924;-53
2022/02/09 00:15:39;;;;;;;;;;;0.20;99.90;;;;;;5092004;28;19924;-55
2022/02/09 00:18:14;;;;;;;;;;;0.00;99.90;;;;;;5091608;28;19971;-51
2022/02/09 00:21:07;;;;;;;;;;;0.00;99.90;;;;;;5091363;28;19990;-52
2022/02/09 00:23:54;;;;;;;;;;;-0.10;99.90;;;;;;5092016;28;19931;-53
2022/02/09 00:38:10;;;;;;;;;;;-0.20;99.90;;;;;;5066002;28;19931;-52
2022/02/09 01:03:01;;;;;;;;;;;-0.40;99.90;;;;;;5091679;28;20330;-55
2022/02/09 01:33:13;;;;;;;;;;;-0.40;99.90;;;;;;5095267;28;20405;-53
2022/02/09 01:38:40;;;;;;;;;;;-0.40;99.90;;;;;;5110015;28;19934;-51
2022/02/09 01:55:30;;;;;;;;;;;-0.10;99.90;;;;;;5059219;28;19970;-51
2022/02/09 01:57:57;;;;;;;;;;;-0.10;99.90;;;;;;5046451;28;19925;-51
2022/02/09 02:00:26;;;;;;;;;;;-0.20;99.90;;;;;;5056677;28;20311;-51
2022/02/09 02:02:53;;;;;;;;;;;-0.20;99.90;;;;;;5057089;28;20414;-51
2022/02/09 02:05:19;;;;;;;;;;;-0.40;99.90;;;;;;5056969;28;19929;-51
2022/02/09 02:07:50;;;;;;;;;;;-0.50;99.90;;;;;;5056371;28;19929;-51
2022/02/09 02:10:22;;;;;;;;;;;-0.50;99.90;;;;;;5056461;28;19931;-51
2022/02/09 02:12:59;;;;;;;;;;;-0.50;99.90;;;;;;5056064;28;20379;-50
2022/02/09 02:15:54;;;;;;;;;;;-0.50;99.90;;;;;;5056297;28;19932;-51
2022/02/09 02:18:22;;;;;;;;;;;-0.60;99.90;;;;;;5055995;28;20267;-51
2022/02/09 02:21:01;;;;;;;;;;;-0.60;99.90;;;;;;5055914;28;19932;-51
2022/02/09 02:23:43;;;;;;;;;;;-0.60;99.90;;;;;;5056492;28;19925;-50
2022/02/09 02:26:22;;;;;;;;;;;-0.70;99.90;;;;;;5056337;28;19979;-51
2022/02/09 02:29:12;;;;;;;;;;;-0.70;99.90;;;;;;5055661;28;19925;-51
2022/02/09 02:32:17;;;;;;;;;;;-0.70;99.90;;;;;;5056072;28;19925;-51
2022/02/09 02:35:15;;;;;;;;;;;-0.70;99.90;;;;;;5055519;28;19984;-50
2022/02/09 02:38:18;;;;;;;;;;;-0.90;99.90;;;;;;5055370;28;19933;-51
2022/02/09 03:08:37;;;;;;;;;;;-1.20;99.90;;;;;;5055017;28;20332;-51
2022/02/09 03:13:54;;;;;;;;;;;-1.30;99.90;;;;;;5042465;28;20399;-51
2022/02/09 03:16:30;;;;;;;;;;;-1.30;99.90;;;;;;5055263;28;20308;-51
2022/02/09 03:21:45;;;;;;;;;;;-1.30;99.90;;;;;;5031560;28;19921;-51
2022/02/09 03:24:16;;;;;;;;;;;-1.30;99.90;;;;;;5035476;28;19925;-50
2022/02/09 03:26:58;;;;;;;;;;;-1.30;99.90;;;;;;5046415;28;20454;-51
2022/02/09 03:43:28;;;;;;;;;;;-1.30;99.90;;;;;;5054730;28;19982;-50
2022/02/09 03:46:19;;;;;;;;;;;-1.40;99.90;;;;;;5053463;28;19928;-51
2022/02/09 03:49:01;;;;;;;;;;;-1.50;99.90;;;;;;5053894;28;20355;-51
2022/02/09 03:51:44;;;;;;;;;;;-1.50;99.90;;;;;;5053665;28;19924;-51
2022/02/09 03:54:19;;;;;;;;;;;-1.60;99.90;;;;;;5054273;28;20359;-51
2022/02/09 03:56:58;;;;;;;;;;;-1.50;99.90;;;;;;5053769;28;19989;-51
2022/02/09 03:59:28;;;;;;;;;;;-1.50;99.90;;;;;;5053876;28;19933;-51
2022/02/09 04:01:56;;;;;;;;;;;-1.60;99.90;;;;;;5053505;28;19933;-51
2022/02/09 04:04:23;;;;;;;;;;;-1.50;99.90;;;;;;5051647;28;19933;-51
2022/02/09 04:06:51;;;;;;;;;;;-1.70;99.90;;;;;;5053967;28;19924;-51
2022/02/09 04:09:21;;;;;;;;;;;-1.60;99.90;;;;;;5053125;28;19932;-51
2022/02/09 04:11:55;;;;;;;;;;;-1.60;99.90;;;;;;5049347;28;19924;-51
2022/02/09 04:14:29;;;;;;;;;;;-1.70;99.90;;;;;;5049463;28;20021;-51
2022/02/09 04:17:09;;;;;;;;;;;-1.60;99.90;;;;;;5049468;28;19975;-51
2022/02/09 04:19:45;;;;;;;;;;;-1.60;99.90;;;;;;5053191;28;19932;-51
2022/02/09 04:22:43;;;;;;;;;;;-1.50;99.90;;;;;;5050088;28;19925;-51
2022/02/09 04:36:16;;;;;;;;;;;-1.60;99.90;;;;;;5053550;28;20023;-51
2022/02/09 04:38:50;;;;;;;;;;;-1.70;99.90;;;;;;5050384;28;19975;-51
2022/02/09 04:44:26;;;;;;;;;;;-1.70;99.90;;;;;;5052480;28;19975;-51
2022/02/09 04:52:39;;;;;;;;;;;-1.60;99.90;;;;;;5050080;28;19924;-51
2022/02/09 04:57:53;;;;;;;;;;;-1.70;99.90;;;;;;5051345;28;20300;-51
2022/02/09 05:00:29;;;;;;;;;;;-1.70;99.90;;;;;;5053166;28;20170;-51
2022/02/09 05:22:35;;;;;;;;;;;-1.60;99.90;;;;;;5037565;28;19921;-51
2022/02/09 05:25:27;;;;;;;;;;;-1.80;99.90;;;;;;5043402;28;20031;-51
2022/02/09 05:28:02;;;;;;;;;;;-1.80;99.90;;;;;;5053776;28;20012;-51
2022/02/09 05:30:28;;;;;;;;;;;-1.90;99.90;;;;;;5047758;28;19940;-51
2022/02/09 05:32:55;;;;;;;;;;;-1.90;99.90;;;;;;5049333;28;20444;-51
2022/02/09 05:35:22;;;;;;;;;;;-1.90;99.90;;;;;;5053098;28;19924;-51
2022/02/09 05:37:51;;;;;;;;;;;-1.70;99.90;;;;;;5054542;28;19925;-51
2022/02/09 05:40:18;;;;;;;;;;;-1.80;99.90;;;;;;5042897;28;19929;-51
2022/02/09 05:42:45;;;;;;;;;;;-1.80;99.90;;;;;;5050885;28;19933;-51
2022/02/09 05:45:13;;;;;;;;;;;-1.90;99.90;;;;;;5053870;28;19925;-51
2022/02/09 05:50:29;;;;;;;;;;;-2.10;99.90;;;;;;5012042;28;19952;-52
2022/02/09 05:53:08;;;;;;;;;;;-2.00;99.90;;;;;;5047534;28;19929;-51
2022/02/09 05:55:50;;;;;;;;;;;-2.00;99.90;;;;;;5036099;28;19980;-51
2022/02/09 05:58:36;;;;;;;;;;;-2.10;99.90;;;;;;5044390;28;19932;-51
2022/02/09 06:01:03;;;;;;;;;;;-1.90;99.90;;;;;;5055058;28;19932;-52
2022/02/09 06:03:30;;;;;;;;;;;-1.80;99.90;;;;;;5056074;28;19925;-51
2022/02/09 06:05:57;;;;;;;;;;;-1.90;99.90;;;;;;5046705;28;20386;-51
2022/02/09 06:08:25;;;;;;;;;;;-2.00;99.90;;;;;;5055534;28;19933;-52
2022/02/09 06:11:06;;;;;;;;;;;-1.90;99.90;;;;;;5044628;28;19971;-51
2022/02/09 06:13:50;;;;;;;;;;;-1.90;99.90;;;;;;5042538;28;20279;-52
2022/02/09 06:21:45;;;;;;;;;;;-1.80;99.90;;;;;;5054429;28;19932;-52
2022/02/09 06:24:13;;;;;;;;;;;-1.80;99.90;;;;;;5055778;28;19986;-52
2022/02/09 06:26:41;;;;;;;;;;;-1.70;99.90;;;;;;5054988;28;19932;-52
2022/02/09 06:29:08;;;;;;;;;;;-1.50;99.90;;;;;;5054777;28;19925;-52
2022/02/09 06:31:36;;;;;;;;;;;-1.50;99.90;;;;;;5054374;28;19932;-52
2022/02/09 06:34:03;;;;;;;;;;;-1.50;99.90;;;;;;5055088;28;19950;-52
2022/02/09 06:36:31;;;;;;;;;;;-1.40;99.90;;;;;;5055367;28;20167;-52
2022/02/09 06:39:04;;;;;;;;;;;-1.40;99.90;;;;;;5054687;28;19925;-52
2022/02/09 06:41:32;;;;;;;;;;;-1.40;99.90;;;;;;5054081;28;19931;-51
2022/02/09 06:43:59;;;;;;;;;;;-1.50;99.90;;;;;;5055473;28;19931;-52
2022/02/09 06:46:26;;;;;;;;;;;-1.50;99.90;;;;;;5051554;28;19925;-52
2022/02/09 06:48:53;;;;;;;;;;;-1.50;99.90;;;;;;5055106;28;20015;-51
2022/02/09 06:51:26;;;;;;;;;;;-1.50;99.90;;;;;;5050521;28;20043;-54
2022/02/09 06:54:01;;;;;;;;;;;-1.50;99.90;;;;;;5055919;28;19936;-52
2022/02/09 06:56:42;;;;;;;;;;;-1.60;99.90;;;;;;5054611;28;19925;-51
2022/02/09 06:59:13;;;;;;;;;;;-1.60;99.90;;;;;;5054705;28;20294;-51
2022/02/09 07:01:40;;;;;;;;;;;-1.60;99.90;;;;;;5051372;28;20016;-52
2022/02/09 07:04:07;;;;;;;;;;;-1.60;99.90;;;;;;5053951;28;19936;-52
2022/02/09 07:06:34;;;;;;;;;;;-1.60;99.90;;;;;;5054340;28;19930;-51
2022/02/09 07:09:01;;;;;;;;;;;-1.80;99.90;;;;;;5049735;28;19994;-52
2022/02/09 07:11:27;;;;;;;;;;;-1.80;99.90;;;;;;5054617;28;20387;-52
2022/02/09 07:13:54;;;;;;;;;;;-1.80;99.90;;;;;;5053584;28;20311;-52
2022/02/09 07:16:23;;;;;;;;;;;-1.80;99.90;;;;;;5040031;28;19979;-52
2022/02/09 07:18:51;;;;;;;;;;;-1.80;99.90;;;;;;5045470;28;19913;-52
2022/02/09 07:21:21;;;;;;;;;;;-1.70;99.90;;;;;;5037469;28;20007;-52
2022/02/09 07:23:50;;;;;;;;;;;-1.60;99.90;;;;;;5036328;28;19925;-52
2022/02/09 07:26:20;;;;;;;;;;;-1.50;99.90;;;;;;5035961;28;19925;-52
2022/02/09 07:28:47;;;;;;;;;;;-1.40;99.90;;;;;;5054322;28;20177;-52
2022/02/09 07:31:14;;;;;;;;;;;-1.20;99.90;;;;;;5035244;28;20438;-52
2022/02/09 07:33:44;;;;;;;;;;;-1.10;99.90;;;;;;5041062;28;19948;-52
2022/02/09 07:36:11;;;;;;;;;;;-1.00;99.90;;;;;;5050503;28;19940;-52
2022/02/09 07:38:39;;;;;;;;;;;-0.80;99.90;;;;;;5036219;28;19932;-52
2022/02/09 07:41:06;;;;;;;;;;;-0.70;99.90;;;;;;5050277;28;19932;-52
2022/02/09 07:43:45;;;;;;;;;;;-0.60;99.90;;;;;;5036943;28;19933;-52
2022/02/09 07:49:08;;;;;;;;;;;0.00;99.90;;;;;;5027569;28;19988;-52
2022/02/09 07:51:56;;;;;;;;;;;0.40;99.90;;;;;;5077884;22;19928;-50
2022/02/09 07:54:25;;;;;;;;;;;0.50;99.90;;;;;;5077239;28;19932;-51
2022/02/09 07:56:52;;;;;;;;;;;0.60;99.90;;;;;;5071812;28;20101;-50
2022/02/09 07:59:19;;;;;;;;;;;0.60;99.90;;;;;;5088287;28;19970;-51
2022/02/09 08:01:46;;;;;;;;;;;0.60;99.90;;;;;;5078598;28;19936;-52
2022/02/09 08:04:14;;;;;;;;;;;0.70;99.90;;;;;;5052177;28;19924;-54
2022/02/09 08:06:41;;;;;;;;;;;0.80;99.90;;;;;;5052312;28;19971;-50
2022/02/09 08:09:14;;;;;;;;;;;1.60;99.90;;;;;;5057829;28;20447;-51
2022/02/09 08:11:48;;;;;;;;;;;3.20;99.90;;;;;;5071676;28;19975;-53
2022/02/09 08:30:59;;;;;;;;;;;8.70;99.90;;;;;;5054596;28;20357;-52
2022/02/09 08:33:25;;;;;;;;;;;8.10;99.90;;;;;;5070659;28;19951;-52
2022/02/09 08:35:55;;;;;;;;;;;8.30;99.90;;;;;;5059463;28;19925;-54
2022/02/09 08:38:28;;;;;;;;;;;8.20;99.90;;;;;;5054599;28;19931;-52
2022/02/09 08:40:55;;;;;;;;;;;8.10;99.90;;;;;;5071410;28;19935;-53
2022/02/09 08:43:24;;;;;;;;;;;7.50;99.90;;;;;;5071377;28;19986;-50
2022/02/09 08:45:51;;;;;;;;;;;7.40;99.90;;;;;;5070594;28;19928;-50
2022/02/09 08:48:21;;;;;;;;;;;7.90;99.90;;;;;;5070557;28;20376;-53
2022/02/09 08:50:48;;;;;;;;;;;8.50;99.90;;;;;;5063727;28;19925;-50
2022/02/09 08:53:19;;;;;;;;;;;9.00;99.90;;;;;;5060176;28;20441;-50
2022/02/09 08:55:48;;;;;;;;;;;9.10;99.90;;;;;;5064481;28;20011;-51
2022/02/09 08:58:18;;;;;;;;;;;9.40;99.90;;;;;;5070007;28;19932;-50
2022/02/09 09:00:45;;;;;;;;;;;9.40;99.90;;;;;;5071216;28;19935;-50
2022/02/09 09:03:17;;;;;;;;;;;9.80;99.90;;;;;;5071279;28;19931;-50
2022/02/09 09:05:50;;;;;;;;;;;10.70;99.90;;;;;;5069781;28;20325;-50
2022/02/09 09:08:39;;;;;;;;;;;11.40;99.90;;;;;;5069636;28;19928;-50
2022/02/09 09:11:48;;;;;;;;;;;12.50;99.90;;;;;;5062750;28;19971;-52
2022/02/09 09:17:24;;;;;;;;;;;13.50;99.90;;;;;;5070151;28;20003;-51
2022/02/09 09:31:14;;;;;;;;;;;15.90;98.80;;;;;;5071418;28;19927;-51
2022/02/09 09:31:41;;;;;;;;;;;16.90;96.50;;;;;;5013823;28;19921;-51
2022/02/09 10:01:52;;;;;;;;;;;22.10;81.00;;;;;;5073256;28;20015;-51
2022/02/09 10:04:33;;;;;;;;;;;22.40;78.60;;;;;;5070711;28;20356;-51
2022/02/09 10:35:13;;;;;;;;;;;20.50;68.00;;;;;;5073692;28;20026;-51
2022/02/09 10:37:40;;;;;;;;;;;20.10;67.00;;;;;;5073312;28;20426;-50
2022/02/09 10:40:12;;;;;;;;;;;20.20;69.00;;;;;;5072308;28;19997;-51
2022/02/09 10:42:42;;;;;;;;;;;19.80;70.80;;;;;;5073270;28;19925;-50
2022/02/09 10:45:29;;;;;;;;;;;19.00;73.70;;;;;;5073622;28;19924;-51
2022/02/09 10:47:58;;;;;;;;;;;18.70;75.00;;;;;;5073311;28;19925;-50
2022/02/09 10:50:27;;;;;;;;;;;18.50;71.90;;;;;;5073330;28;19970;-50
2022/02/09 10:52:54;;;;;;;;;;;17.40;73.30;;;;;;5069769;28;19925;-50
2022/02/09 10:55:28;;;;;;;;;;;17.40;72.30;;;;;;5072520;28;20405;-50
2022/02/09 10:57:55;;;;;;;;;;;16.50;75.80;;;;;;5072839;28;19925;-50
2022/02/09 11:00:22;;;;;;;;;;;15.80;78.40;;;;;;5072723;28;19986;-50
2022/02/09 11:02:49;;;;;;;;;;;14.20;82.20;;;;;;5072674;28;19936;-50
2022/02/09 11:05:19;;;;;;;;;;;12.80;84.00;;;;;;5072705;28;19931;-51
2022/02/09 11:07:46;;;;;;;;;;;12.30;87.70;;;;;;5065712;28;19933;-51
2022/02/09 11:10:13;;;;;;;;;;;11.50;91.40;;;;;;5066155;28;19928;-50
2022/02/09 11:12:41;;;;;;;;;;;11.00;92.70;;;;;;5072020;28;19971;-51
2022/02/09 11:15:08;;;;;;;;;;;10.80;94.40;;;;;;5070660;28;19928;-50
2022/02/09 11:17:36;;;;;;;;;;;10.70;93.70;;;;;;5072344;28;19978;-50
2022/02/09 11:20:03;;;;;;;;;;;10.60;93.70;;;;;;5071784;28;19924;-50
2022/02/09 11:22:39;;;;;;;;;;;10.40;93.50;;;;;;5069653;28;19928;-50
2022/02/09 11:25:12;;;;;;;;;;;10.40;92.20;;;;;;5071256;28;20330;-51
2022/02/09 11:27:46;;;;;;;;;;;10.40;92.60;;;;;;5070882;28;20427;-50
2022/02/09 11:30:20;;;;;;;;;;;10.40;93.00;;;;;;5071789;28;19925;-51
2022/02/09 11:32:59;;;;;;;;;;;10.20;94.60;;;;;;5072305;28;20027;-49
2022/02/09 11:38:26;;;;;;;;;;;10.10;93.90;;;;;;5071046;28;20381;-50
2022/02/09 11:41:05;;;;;;;;;;;10.10;93.70;;;;;;5068659;28;19974;-49
2022/02/09 11:43:36;;;;;;;;;;;10.10;94.50;;;;;;5065964;28;19968;-50
2022/02/09 11:46:21;;;;;;;;;;;10.00;95.50;;;;;;5056730;28;20289;-49
2022/02/09 11:52:07;;;;;;;;;;;9.90;94.30;;;;;;5070719;28;19924;-51
2022/02/09 11:54:52;;;;;;;;;;;9.80;94.20;;;;;;5069922;28;20382;-51
2022/02/09 11:57:51;;;;;;;;;;;9.80;93.50;;;;;;5064817;28;19924;-50
2022/02/09 12:00:54;;;;;;;;;;;9.80;92.50;;;;;;5070643;28;20081;-51
2022/02/09 12:09:50;;;;;;;;;;;10.00;93.40;;;;;;5053101;28;19927;-49
2022/02/09 12:12:22;;;;;;;;;;;10.00;92.50;;;;;;5070160;28;19935;-50
2022/02/09 12:14:55;;;;;;;;;;;10.10;93.20;;;;;;5064152;28;19972;-51
2022/02/09 12:17:47;;;;;;;;;;;10.10;95.20;;;;;;5071020;28;19928;-49
2022/02/09 12:20:20;;;;;;;;;;;9.90;95.40;;;;;;5062267;28;19925;-50
2022/02/09 12:23:03;;;;;;;;;;;10.10;94.50;;;;;;5071690;28;19928;-50
2022/02/09 12:25:37;;;;;;;;;;;10.00;95.10;;;;;;5071335;28;19928;-50
2022/02/09 12:28:06;;;;;;;;;;;10.10;94.70;;;;;;5070414;28;20386;-50
2022/02/09 12:30:33;;;;;;;;;;;10.10;94.30;;;;;;5069648;28;20386;-51
2022/02/09 12:33:00;;;;;;;;;;;10.10;95.00;;;;;;5071456;28;19924;-52
2022/02/09 12:35:27;;;;;;;;;;;9.90;96.00;;;;;;5070720;28;20353;-50
2022/02/09 12:37:54;;;;;;;;;;;10.00;96.00;;;;;;5071311;28;19970;-50
2022/02/09 12:40:21;;;;;;;;;;;10.20;96.60;;;;;;5071191;28;20353;-50
2022/02/09 12:42:49;;;;;;;;;;;10.20;95.80;;;;;;5070204;28;20025;-50
2022/02/09 12:45:18;;;;;;;;;;;10.40;95.50;;;;;;5065805;28;19924;-49
2022/02/09 12:47:46;;;;;;;;;;;10.50;94.60;;;;;;5070820;28;20460;-48
2022/02/09 12:50:13;;;;;;;;;;;10.50;94.80;;;;;;5071310;28;19997;-49
2022/02/09 12:52:41;;;;;;;;;;;10.50;93.60;;;;;;5071194;28;19986;-50
2022/02/09 12:55:11;;;;;;;;;;;10.60;92.70;;;;;;5071284;28;19925;-50
2022/02/09 12:57:39;;;;;;;;;;;10.50;94.60;;;;;;5069473;28;20028;-49
2022/02/09 13:00:07;;;;;;;;;;;10.50;94.30;;;;;;5070629;28;19994;-50
2022/02/09 13:02:46;;;;;;;;;;;10.40;94.20;;;;;;5070893;28;19928;-50
2022/02/09 13:05:13;;;;;;;;;;;10.50;94.40;;;;;;5059665;28;19931;-49
2022/02/09 13:07:39;;;;;;;;;;;10.50;93.00;;;;;;5050401;28;19978;-48
2022/02/09 13:10:08;;;;;;;;;;;10.50;94.60;;;;;;5051375;28;19928;-49
2022/02/09 13:12:41;;;;;;;;;;;10.50;94.20;;;;;;5051672;28;19925;-49
2022/02/09 13:15:14;;;;;;;;;;;10.60;94.30;;;;;;5052667;28;19924;-49
2022/02/09 13:17:57;;;;;;;;;;;10.60;95.40;;;;;;5051795;28;20012;-49
2022/02/09 13:20:53;;;;;;;;;;;10.70;94.50;;;;;;5051311;28;19925;-50
2022/02/09 13:23:40;;;;;;;;;;;10.80;93.20;;;;;;5052970;28;19925;-48
2022/02/09 13:26:33;;;;;;;;;;;10.90;93.00;;;;;;5055211;28;19932;-49
2022/02/09 14:03:18;;;;;;;;;;;11.00;93.40;;;;;;5053269;28;19924;-51
2022/02/09 14:11:43;;;;;;;;;;;10.90;92.90;;;;;;5052869;28;19932;-52
2022/02/09 14:17:07;;;;;;;;;;;10.80;92.10;;;;;;5015534;28;19934;-51
2022/02/09 14:52:52;;;;;;;;;;;10.40;93.40;;;;;;5036962;28;19968;-51
2022/02/09 14:58:09;;;;;;;;;;;10.30;94.40;;;;;;5021825;28;19921;-51
2022/02/09 15:00:47;;;;;;;;;;;10.30;94.30;;;;;;5040113;28;19925;-52
2022/02/09 15:03:26;;;;;;;;;;;10.30;94.20;;;;;;5051878;28;19978;-52
2022/02/09 15:06:21;;;;;;;;;;;10.30;94.60;;;;;;5052086;28;19925;-52
2022/02/09 15:08:52;;;;;;;;;;;10.20;94.30;;;;;;5051544;28;20023;-51
2022/02/09 15:11:27;;;;;;;;;;;10.30;93.80;;;;;;5052051;28;19928;-53
2022/02/09 15:14:08;;;;;;;;;;;10.30;94.20;;;;;;5048068;28;19925;-53
2022/02/09 15:16:43;;;;;;;;;;;10.20;94.10;;;;;;5032327;28;20015;-52
2022/02/09 15:19:19;;;;;;;;;;;10.20;94.10;;;;;;5032123;28;19991;-52
2022/02/09 15:22:04;;;;;;;;;;;10.10;94.40;;;;;;5032426;28;20326;-52
2022/02/09 15:24:38;;;;;;;;;;;10.00;94.70;;;;;;5032388;28;19925;-51
2022/02/09 15:27:05;;;;;;;;;;;10.10;94.70;;;;;;5032016;28;19925;-52
2022/02/09 15:29:37;;;;;;;;;;;10.10;95.10;;;;;;5031987;28;19929;-53
2022/02/09 15:32:08;;;;;;;;;;;10.00;95.20;;;;;;5051705;28;19924;-53
2022/02/09 15:34:39;;;;;;;;;;;10.00;95.10;;;;;;5051882;28;19990;-52
2022/02/09 15:37:13;;;;;;;;;;;10.00;94.70;;;;;;5048580;28;20209;-53
2022/02/09 15:39:43;;;;;;;;;;;10.00;94.70;;;;;;5030751;28;20301;-52
2022/02/09 16:10:13;;;;;;;;;;;9.10;97.00;;;;;;5030593;28;19968;-51
2022/02/09 16:23:45;;;;;;;;;;;8.70;98.50;;;;;;5030344;28;20360;-52
2022/02/09 16:33:12;;;;;;;;;;;8.50;98.90;;;;;;5030417;28;19929;-52
2022/02/09 16:38:23;;;;;;;;;;;8.10;99.90;;;;;;4971567;28;19926;-52
2022/02/09 16:46:21;;;;;;;;;;;7.80;99.90;;;;;;5029490;28;19987;-52
2022/02/09 16:48:53;;;;;;;;;;;7.70;99.90;;;;;;5029780;28;19926;-52
2022/02/09 16:51:23;;;;;;;;;;;7.70;99.90;;;;;;5037382;28;20001;-52
2022/02/09 16:54:04;;;;;;;;;;;7.80;99.90;;;;;;5050063;28;19932;-52
2022/02/09 17:21:09;;;;;;;;;;;7.10;99.90;;;;;;5036101;28;19940;-52
2022/02/09 17:23:37;;;;;;;;;;;7.20;99.90;;;;;;5037586;28;19925;-52
2022/02/09 17:26:04;;;;;;;;;;;7.10;99.90;;;;;;5035907;28;20067;-52
2022/02/09 17:28:31;;;;;;;;;;;7.20;99.90;;;;;;5036269;28;19925;-52
2022/02/09 17:31:20;;;;;;;;;;;7.10;99.90;;;;;;5035794;28;19936;-52
2022/02/09 17:34:03;;;;;;;;;;;6.90;99.90;;;;;;5035658;28;19932;-51
2022/02/09 17:36:43;;;;;;;;;;;6.90;99.90;;;;;;5035533;28;19929;-51
2022/02/09 17:39:26;;;;;;;;;;;6.90;99.90;;;;;;5036254;28;19933;-51
2022/02/09 17:55:55;;;;;;;;;;;5.90;99.90;;;;;;5044130;28;19932;-49
2022/02/09 17:58:26;;;;;;;;;;;5.80;99.90;;;;;;5035230;28;19925;-48
2022/02/09 18:00:53;;;;;;;;;;;5.70;99.90;;;;;;5035844;28;19936;-49
2022/02/09 18:03:20;;;;;;;;;;;5.60;99.90;;;;;;5035800;28;20014;-50
2022/02/09 18:05:48;;;;;;;;;;;5.50;99.90;;;;;;5036014;28;20075;-52
2022/02/09 18:08:21;;;;;;;;;;;5.50;99.90;;;;;;5032551;28;19995;-52
2022/02/09 18:11:00;;;;;;;;;;;5.50;99.90;;;;;;5032936;28;20542;-51
2022/02/09 18:29:50;;;;;;;;;;;5.60;99.90;;;;;;5032683;28;19929;-48
2022/02/09 18:38:35;;;;;;;;;;;5.00;99.90;;;;;;4990571;28;19921;-49
2022/02/09 18:43:50;;;;;;;;;;;4.90;99.90;;;;;;5009123;28;19999;-53
2022/02/09 18:46:25;;;;;;;;;;;4.90;99.90;;;;;;5032581;28;19932;-49
2022/02/09 18:57:51;;;;;;;;;;;4.60;99.90;;;;;;5010847;28;19921;-48
2022/02/09 19:00:37;;;;;;;;;;;4.40;99.90;;;;;;5044180;28;19929;-48
2022/02/09 19:03:02;;;;;;;;;;;4.30;99.90;;;;;;5031434;28;20235;-49
2022/02/09 19:05:33;;;;;;;;;;;4.30;99.90;;;;;;5032209;28;19968;-50
2022/02/09 19:19:24;;;;;;;;;;;3.80;99.90;;;;;;4998460;28;19933;-50
2022/02/09 19:27:44;;;;;;;;;;;3.30;99.90;;;;;;5030315;28;19928;-49
2022/02/09 19:30:20;;;;;;;;;;;3.20;99.90;;;;;;5030128;28;20342;-49
2022/02/09 19:33:14;;;;;;;;;;;3.10;99.90;;;;;;5029950;28;19937;-49
2022/02/09 19:47:05;;;;;;;;;;;3.70;99.90;;;;;;5030363;28;19931;-49
2022/02/09 19:49:51;;;;;;;;;;;3.70;99.90;;;;;;5031319;28;19925;-49
2022/02/09 19:52:31;;;;;;;;;;;3.60;99.90;;;;;;5065489;22;19932;-48
2022/02/09 19:55:19;;;;;;;;;;;3.60;99.90;;;;;;5092908;28;19978;-50
2022/02/09 19:57:46;;;;;;;;;;;3.70;99.90;;;;;;5092961;28;19932;-49
2022/02/09 20:00:17;;;;;;;;;;;3.70;99.90;;;;;;5091996;28;19924;-48
2022/02/09 20:02:47;;;;;;;;;;;3.90;99.90;;;;;;5092769;28;20014;-48
2022/02/09 20:05:15;;;;;;;;;;;3.80;99.90;;;;;;5089070;28;19978;-48
2022/02/09 20:07:42;;;;;;;;;;;3.80;99.90;;;;;;5072517;28;19985;-48
2022/02/09 20:10:11;;;;;;;;;;;3.80;99.90;;;;;;5072356;28;19929;-49
2022/02/09 20:12:38;;;;;;;;;;;3.80;99.90;;;;;;5072302;28;19930;-48
2022/02/09 20:15:05;;;;;;;;;;;3.60;99.90;;;;;;5072608;28;20413;-49
2022/02/09 20:17:32;;;;;;;;;;;3.40;99.90;;;;;;5072379;28;20332;-49
2022/02/09 20:20:01;;;;;;;;;;;3.30;99.90;;;;;;5072292;28;19932;-49
2022/02/09 20:22:29;;;;;;;;;;;3.40;99.90;;;;;;5071259;28;19931;-49
2022/02/09 20:24:56;;;;;;;;;;;3.30;99.90;;;;;;5072266;28;19924;-48
2022/02/09 20:27:24;;;;;;;;;;;3.20;99.90;;;;;;5072359;28;19924;-47
2022/02/09 20:29:52;;;;;;;;;;;3.10;99.90;;;;;;5071926;28;19925;-49
2022/02/09 20:32:22;;;;;;;;;;;3.20;99.90;;;;;;5071779;28;19925;-49
2022/02/09 20:34:53;;;;;;;;;;;3.10;99.90;;;;;;5072162;28;19925;-48
2022/02/09 20:37:22;;;;;;;;;;;2.90;99.90;;;;;;5072241;28;20390;-47
2022/02/09 20:40:03;;;;;;;;;;;2.70;99.90;;;;;;5071884;28;19924;-48
2022/02/09 20:42:30;;;;;;;;;;;2.60;99.90;;;;;;5052213;28;19939;-48
2022/02/09 20:45:01;;;;;;;;;;;2.50;99.90;;;;;;5052384;28;19925;-48
2022/02/09 20:47:30;;;;;;;;;;;2.60;99.90;;;;;;5055919;28;20019;-47
2022/02/09 20:49:56;;;;;;;;;;;2.60;99.90;;;;;;5061845;28;20333;-48
2022/02/09 20:52:23;;;;;;;;;;;2.60;99.90;;;;;;5072069;28;19924;-48
2022/02/09 20:54:52;;;;;;;;;;;2.50;99.90;;;;;;5072511;28;19924;-48
2022/02/09 20:57:19;;;;;;;;;;;2.50;99.90;;;;;;5072294;28;19928;-48
2022/02/09 20:59:50;;;;;;;;;;;2.60;99.90;;;;;;5071630;28;19928;-48
2022/02/09 21:02:35;;;;;;;;;;;2.50;99.90;;;;;;5071937;28;19924;-49
2022/02/09 21:05:22;;;;;;;;;;;2.40;99.90;;;;;;5071831;28;20390;-47
2022/02/09 21:07:58;;;;;;;;;;;2.30;99.90;;;;;;5072258;28;19967;-48
2022/02/09 21:10:38;;;;;;;;;;;2.10;99.90;;;;;;5071859;28;19998;-48
2022/02/09 21:13:11;;;;;;;;;;;2.00;99.90;;;;;;5071698;28;19925;-47
2022/02/09 21:15:50;;;;;;;;;;;1.80;99.90;;;;;;5072074;28;19958;-48
2022/02/09 21:27:01;;;;;;;;;;;2.10;99.90;;;;;;4995054;28;19969;-48
2022/02/09 21:32:35;;;;;;;;;;;2.50;99.90;;;;;;5020521;28;20306;-48
2022/02/09 21:49:34;;;;;;;;;;;2.70;99.90;;;;;;5048124;28;20054;-48
2022/02/09 21:54:49;;;;;;;;;;;3.00;99.90;;;;;;5071592;28;19924;-47
2022/02/09 21:57:22;;;;;;;;;;;3.00;99.90;;;;;;5073661;28;20034;-48
2022/02/09 22:16:46;;;;;;;;;;;1.90;99.90;;;;;;5074702;28;19951;-47
2022/02/09 22:19:33;;;;;;;;;;;1.90;99.90;;;;;;5074297;28;19924;-48
2022/02/09 22:22:16;;;;;;;;;;;2.00;99.90;;;;;;5069926;28;19924;-49
2022/02/09 22:27:32;;;;;;;;;;;2.00;99.90;;;;;;5071235;28;20007;-48
2022/02/09 22:54:44;;;;;;;;;;;1.20;99.90;;;;;;5073737;28;20110;-48
2022/02/09 22:57:12;;;;;;;;;;;1.10;99.90;;;;;;5073401;28;19925;-47
2022/02/09 22:59:44;;;;;;;;;;;1.00;99.90;;;;;;5073315;28;19924;-48
2022/02/09 23:02:21;;;;;;;;;;;0.80;99.90;;;;;;5073242;28;19924;-48
2022/02/09 23:05:04;;;;;;;;;;;0.80;99.90;;;;;;5073379;28;19966;-48
2022/02/09 23:07:45;;;;;;;;;;;0.70;99.90;;;;;;5072684;28;19924;-48
2022/02/09 23:10:20;;;;;;;;;;;0.90;99.90;;;;;;5058468;28;19929;-48
2022/02/09 23:12:52;;;;;;;;;;;1.00;99.90;;;;;;5063864;28;19932;-48
2022/02/09 23:15:32;;;;;;;;;;;1.10;99.90;;;;;;5072811;28;20386;-48
2022/02/09 23:18:24;;;;;;;;;;;1.30;99.90;;;;;;5072868;28;19932;-47
2022/02/09 23:23:53;;;;;;;;;;;1.30;99.90;;;;;;5072966;28;19931;-47
2022/02/09 23:27:07;;;;;;;;;;;1.40;99.90;;;;;;5072604;28;19932;-48
2022/02/09 23:54:51;;;;;;;;;;;1.30;99.90;;;;;;5069026;28;20027;-48
